createdAt,value
2019-05-23T00:01:55.485Z,9.00
2019-05-23T00:04:34.923Z,8.27
2019-05-23T00:07:09.742Z,8.70
2019-05-23T00:09:40.188Z,8.53
2019-05-23T00:12:29.825Z,9.10
2019-05-23T00:15:03.639Z,8.83
2019-05-23T00:17:33.936Z,9.73
2019-05-23T00:20:06.119Z,9.93
2019-05-23T00:22:36.937Z,10.10
2019-05-23T00:25:09.865Z,10.30
2019-05-23T00:27:42.624Z,10.10
2019-05-23T00:30:15.917Z,9.50
2019-05-23T00:32:47.324Z,11.10
2019-05-23T00:35:19.713Z,10.50
2019-05-23T00:37:51.264Z,10.80
2019-05-23T00:40:23.357Z,10.50
2019-05-23T00:42:53.489Z,10.50
2019-05-23T00:45:24.029Z,9.80
2019-05-23T00:47:55.898Z,9.80
2019-05-23T00:50:27.790Z,8.90
2019-05-23T00:52:58.008Z,8.07
2019-05-23T00:55:29.812Z,7.73
2019-05-23T00:58:00.419Z,6.93
2019-05-23T01:00:31.413Z,6.50
2019-05-23T01:03:02.113Z,5.57
2019-05-23T01:05:32.620Z,6.43
2019-05-23T01:08:03.850Z,6.30
2019-05-23T01:10:34.132Z,5.37
2019-05-23T01:13:05.502Z,5.80
2019-05-23T01:15:36.160Z,6.57
2019-05-23T01:18:06.524Z,6.67
2019-05-23T01:20:48.309Z,6.90
2019-05-23T01:23:19.166Z,6.93
2019-05-23T01:25:49.211Z,6.43
2019-05-23T01:28:19.628Z,7.80
2019-05-23T01:30:51.638Z,7.73
2019-05-23T01:33:23.379Z,8.73
2019-05-23T01:35:53.273Z,8.90
2019-05-23T01:38:23.652Z,9.17
2019-05-23T01:40:56.277Z,9.23
2019-05-23T01:43:27.682Z,9.43
2019-05-23T01:45:58.777Z,10.27
2019-05-23T01:48:29.823Z,10.50
2019-05-23T01:50:59.780Z,11.30
2019-05-23T01:53:31.824Z,10.73
2019-05-23T01:56:02.111Z,10.60
2019-05-23T01:58:31.917Z,10.80
2019-05-23T02:01:02.976Z,11.97
2019-05-23T02:03:34.229Z,12.60
2019-05-23T02:06:04.810Z,9.60
2019-05-23T02:08:36.487Z,10.57
2019-05-23T02:11:07.207Z,10.30
2019-05-23T02:13:37.619Z,10.30
2019-05-23T02:16:07.962Z,10.00
2019-05-23T02:18:37.660Z,11.07
2019-05-23T02:21:08.016Z,9.90
2019-05-23T02:23:37.928Z,9.73
2019-05-23T02:26:08.732Z,10.10
2019-05-23T02:28:39.716Z,11.53
2019-05-23T02:31:10.999Z,11.10
2019-05-23T02:33:41.643Z,10.63
2019-05-23T02:36:12.752Z,11.30
2019-05-23T02:38:59.482Z,10.30
2019-05-23T02:41:31.984Z,11.30
2019-05-23T02:44:09.064Z,10.43
2019-05-23T02:46:51.285Z,10.90
2019-05-23T02:49:24.724Z,11.60
2019-05-23T02:51:56.808Z,11.17
2019-05-23T02:54:30.242Z,12.00
2019-05-23T02:57:03.864Z,11.23
2019-05-23T02:59:46.539Z,10.63
2019-05-23T03:02:50.834Z,12.03
2019-05-23T03:05:25.127Z,12.40
2019-05-23T03:07:57.259Z,13.20
2019-05-23T03:10:30.949Z,14.07
2019-05-23T03:13:01.810Z,13.70
2019-05-23T03:15:33.845Z,13.73
2019-05-23T03:18:05.472Z,14.50
2019-05-23T03:20:35.690Z,13.97
2019-05-23T03:23:12.050Z,14.70
2019-05-23T03:26:20.888Z,14.13
2019-05-23T03:28:51.913Z,14.10
2019-05-23T03:31:32.050Z,15.30
2019-05-23T03:34:01.485Z,15.00
2019-05-23T03:36:31.558Z,16.20
2019-05-23T03:39:02.373Z,16.40
2019-05-23T03:41:32.606Z,14.80
2019-05-23T03:44:03.133Z,14.93
2019-05-23T03:46:34.628Z,14.77
2019-05-23T03:49:06.456Z,14.60
2019-05-23T03:51:37.054Z,15.10
2019-05-23T03:54:07.453Z,16.73
2019-05-23T03:56:38.092Z,15.03
2019-05-23T03:59:09.645Z,15.00
2019-05-23T04:01:47.673Z,15.53
2019-05-23T04:04:13.733Z,13.83
2019-05-23T04:06:45.153Z,12.57
2019-05-23T04:09:16.182Z,13.60
2019-05-23T04:11:46.732Z,11.93
2019-05-23T04:14:17.317Z,12.70
2019-05-23T04:16:48.004Z,12.30
2019-05-23T04:19:18.234Z,12.00
2019-05-23T04:21:48.334Z,12.40
2019-05-23T04:24:18.374Z,11.90
2019-05-23T04:26:48.273Z,12.17
2019-05-23T04:29:18.664Z,11.90
2019-05-23T04:32:06.327Z,12.30
2019-05-23T04:34:20.355Z,11.27
2019-05-23T04:36:50.355Z,12.03
2019-05-23T04:39:20.725Z,10.43
2019-05-23T04:41:50.954Z,11.20
2019-05-23T04:44:21.384Z,12.50
2019-05-23T04:46:51.441Z,12.57
2019-05-23T04:49:23.466Z,11.70
2019-05-23T04:51:54.986Z,12.43
2019-05-23T04:54:26.241Z,12.50
2019-05-23T04:56:56.331Z,11.57
2019-05-23T04:59:26.517Z,13.10
2019-05-23T05:01:56.648Z,12.93
2019-05-23T05:04:26.574Z,11.10
2019-05-23T05:06:56.562Z,12.30
2019-05-23T05:09:32.154Z,12.40
2019-05-23T05:12:14.994Z,12.80
2019-05-23T05:15:09.516Z,13.10
2019-05-23T05:17:39.983Z,13.37
2019-05-23T05:20:12.728Z,12.10
2019-05-23T05:22:44.394Z,11.93
2019-05-23T05:25:14.762Z,12.07
2019-05-23T05:27:44.765Z,11.80
2019-05-23T05:30:18.206Z,13.50
2019-05-23T05:32:48.496Z,13.00
2019-05-23T05:35:18.621Z,12.80
2019-05-23T05:37:48.717Z,14.63
2019-05-23T05:40:22.097Z,13.03
2019-05-23T05:45:59.291Z,13.33
2019-05-23T05:48:31.183Z,13.97
2019-05-23T05:51:01.212Z,13.40
2019-05-23T05:56:27.867Z,13.40
2019-05-23T05:58:58.694Z,14.93
2019-05-23T06:01:33.964Z,13.80
2019-05-23T06:04:00.910Z,15.87
2019-05-23T06:06:39.481Z,14.40
2019-05-23T06:09:18.942Z,13.67
2019-05-23T06:11:50.515Z,14.33
2019-05-23T06:14:20.719Z,12.60
2019-05-23T06:16:53.010Z,12.37
2019-05-23T06:19:23.351Z,12.60
2019-05-23T06:21:54.039Z,12.50
2019-05-23T06:24:42.135Z,12.33
2019-05-23T06:27:03.984Z,10.17
2019-05-23T06:29:34.397Z,10.30
2019-05-23T06:32:08.552Z,12.80
2019-05-23T06:34:39.427Z,13.57
2019-05-23T06:37:13.449Z,11.10
2019-05-23T06:39:44.120Z,9.50
2019-05-23T06:42:14.407Z,9.60
2019-05-23T06:44:44.550Z,8.60
2019-05-23T06:47:17.094Z,8.93
2019-05-23T06:49:47.219Z,7.93
2019-05-23T06:52:20.118Z,6.17
2019-05-23T06:54:52.197Z,6.40
2019-05-23T06:57:27.520Z,4.83
2019-05-23T06:59:57.954Z,5.30
2019-05-23T07:02:32.573Z,5.00
2019-05-23T07:05:02.623Z,6.07
2019-05-23T07:07:33.272Z,5.33
2019-05-23T07:10:04.686Z,5.90
2019-05-23T07:12:35.425Z,5.40
2019-05-23T07:15:05.866Z,5.97
2019-05-23T07:17:39.826Z,5.20
2019-05-23T07:20:10.868Z,6.20
2019-05-23T07:22:41.208Z,5.63
2019-05-23T07:25:13.856Z,5.87
2019-05-23T07:27:45.781Z,6.70
2019-05-23T07:30:20.511Z,6.60
2019-05-23T07:32:50.850Z,6.47
2019-05-23T07:35:21.802Z,5.70
2019-05-23T07:37:52.286Z,5.63
2019-05-23T07:40:23.869Z,5.30
2019-05-23T07:42:54.584Z,5.50
2019-05-23T07:45:28.788Z,5.20
2019-05-23T07:48:06.088Z,5.63
2019-05-23T07:50:38.011Z,5.30
2019-05-23T07:53:09.869Z,5.67
2019-05-23T07:55:43.554Z,4.83
2019-05-23T07:58:14.438Z,4.10
2019-05-23T08:00:53.550Z,4.50
2019-05-23T08:03:28.118Z,4.30
2019-05-23T08:05:58.730Z,3.87
2019-05-23T08:08:31.625Z,3.73
2019-05-23T08:11:01.659Z,3.10
2019-05-23T08:13:32.746Z,2.50
2019-05-23T08:16:02.977Z,1.90
2019-05-23T08:18:32.832Z,2.23
2019-05-23T08:21:02.819Z,2.07
2019-05-23T08:23:34.016Z,2.33
2019-05-23T08:26:04.353Z,2.43
2019-05-23T08:28:34.603Z,1.90
2019-05-23T08:31:05.027Z,2.40
2019-05-23T08:33:44.959Z,2.20
2019-05-23T08:36:15.666Z,2.70
2019-05-23T08:38:45.483Z,2.90
2019-05-23T08:41:19.585Z,2.20
2019-05-23T08:43:52.377Z,2.27
2019-05-23T08:46:24.432Z,1.77
2019-05-23T08:48:54.428Z,1.83
2019-05-23T08:51:25.708Z,2.10
2019-05-23T08:53:55.496Z,2.30
2019-05-23T08:56:28.870Z,1.87
2019-05-23T08:59:00.173Z,1.90
2019-05-23T09:01:32.417Z,1.80
2019-05-23T09:04:03.382Z,2.20
2019-05-23T09:06:35.716Z,2.67
2019-05-23T09:09:27.619Z,2.63
2019-05-23T09:11:40.268Z,2.80
2019-05-23T09:14:10.034Z,2.40
2019-05-23T09:16:40.546Z,2.37
2019-05-23T09:19:10.809Z,2.30
2019-05-23T09:21:42.433Z,2.50
2019-05-23T09:24:13.946Z,2.70
2019-05-23T09:26:44.488Z,2.17
2019-05-23T09:29:15.237Z,2.33
2019-05-23T09:31:45.285Z,2.87
2019-05-23T09:34:16.611Z,2.63
2019-05-23T09:36:47.183Z,2.90
2019-05-23T09:39:18.711Z,2.90
2019-05-23T09:41:49.044Z,2.43
2019-05-23T09:44:19.556Z,2.03
2019-05-23T09:46:50.236Z,2.00
2019-05-23T09:49:20.345Z,2.03
2019-05-23T09:51:54.690Z,2.20
2019-05-23T09:54:24.806Z,1.97
2019-05-23T09:56:55.322Z,2.40
2019-05-23T09:59:26.352Z,2.23
2019-05-23T10:01:57.313Z,2.40
2019-05-23T10:04:27.367Z,2.40
2019-05-23T10:06:59.728Z,2.10
2019-05-23T10:09:33.843Z,2.40
2019-05-23T10:12:04.413Z,2.43
2019-05-23T10:14:36.470Z,2.37
2019-05-23T10:17:09.949Z,2.20
2019-05-23T10:19:42.430Z,3.20
2019-05-23T10:22:14.531Z,2.53
2019-05-23T10:24:45.588Z,2.03
2019-05-23T10:27:16.587Z,1.97
2019-05-23T10:29:47.501Z,2.40
2019-05-23T10:32:20.875Z,2.70
2019-05-23T10:34:53.979Z,2.57
2019-05-23T10:37:28.036Z,2.30
2019-05-23T10:40:00.727Z,2.97
2019-05-23T10:42:31.656Z,2.43
2019-05-23T10:45:01.744Z,2.27
2019-05-23T10:47:32.985Z,2.40
2019-05-23T10:50:07.837Z,2.33
2019-05-23T10:52:37.730Z,2.30
2019-05-23T10:55:08.676Z,2.30
2019-05-23T10:57:38.743Z,2.63
2019-05-23T11:00:11.329Z,2.10
2019-05-23T11:02:44.823Z,2.47
2019-05-23T11:05:15.549Z,2.30
2019-05-23T11:07:46.281Z,2.20
2019-05-23T11:10:17.190Z,2.37
2019-05-23T11:12:47.928Z,2.57
2019-05-23T11:15:20.579Z,2.80
2019-05-23T11:17:53.468Z,2.33
2019-05-23T11:20:24.585Z,3.07
2019-05-23T11:22:54.848Z,2.20
2019-05-23T11:25:26.217Z,2.43
2019-05-23T11:27:57.005Z,3.00
2019-05-23T11:30:34.272Z,2.70
2019-05-23T11:33:06.197Z,2.40
2019-05-23T11:35:36.735Z,2.70
2019-05-23T11:38:07.864Z,2.30
2019-05-23T11:40:38.004Z,2.73
2019-05-23T11:43:09.265Z,3.00
2019-05-23T11:45:49.766Z,2.80
2019-05-23T11:48:20.575Z,4.27
2019-05-23T11:50:51.493Z,4.13
2019-05-23T11:53:21.852Z,3.23
2019-05-23T11:55:54.353Z,2.73
2019-05-23T11:58:24.106Z,3.00
2019-05-23T12:01:31.178Z,2.17
2019-05-23T12:04:09.103Z,2.60
2019-05-23T12:06:55.239Z,2.77
2019-05-23T12:09:17.110Z,2.87
2019-05-23T12:11:48.713Z,2.93
2019-05-23T12:14:19.195Z,2.90
2019-05-23T12:16:50.245Z,2.60
2019-05-23T12:19:22.614Z,2.37
2019-05-23T12:21:54.530Z,2.70
2019-05-23T12:24:25.032Z,2.70
2019-05-23T12:26:58.066Z,2.47
2019-05-23T12:29:28.331Z,2.87
2019-05-23T12:31:58.274Z,2.87
2019-05-23T12:34:28.099Z,3.10
2019-05-23T12:37:17.276Z,2.80
2019-05-23T12:39:32.038Z,2.63
2019-05-23T12:42:02.355Z,3.03
2019-05-23T12:44:32.328Z,2.27
2019-05-23T12:47:04.504Z,2.80
2019-05-23T12:49:43.108Z,2.40
2019-05-23T12:52:16.422Z,2.47
2019-05-23T12:54:46.793Z,2.10
2019-05-23T12:57:18.772Z,3.12
2019-05-23T12:59:49.500Z,2.40
2019-05-23T13:02:23.488Z,2.70
2019-05-23T13:04:53.844Z,2.50
2019-05-23T13:07:35.619Z,2.37
2019-05-23T13:09:57.514Z,2.50
2019-05-23T13:12:27.566Z,2.33
2019-05-23T13:14:59.916Z,3.30
2019-05-23T13:17:30.375Z,3.00
2019-05-23T13:20:02.128Z,2.80
2019-05-23T13:22:32.006Z,2.70
2019-05-23T13:25:04.770Z,3.53
2019-05-23T13:27:35.705Z,3.00
2019-05-23T13:30:08.481Z,2.40
2019-05-23T13:33:03.589Z,2.87
2019-05-23T13:35:34.416Z,2.70
2019-05-23T13:38:06.755Z,2.73
2019-05-23T13:40:39.046Z,2.77
2019-05-23T13:43:09.473Z,3.40
2019-05-23T13:45:41.762Z,2.17
2019-05-23T13:48:14.106Z,2.60
2019-05-23T13:50:44.227Z,2.80
2019-05-23T13:53:17.260Z,2.30
2019-05-23T13:55:54.170Z,2.40
2019-05-23T13:58:25.151Z,2.33
2019-05-23T14:01:08.786Z,1.77
2019-05-23T14:03:38.194Z,1.93
2019-05-23T14:06:14.910Z,2.60
2019-05-23T14:08:45.322Z,2.60
2019-05-23T14:11:15.981Z,2.30
2019-05-23T14:13:46.765Z,2.70
2019-05-23T14:16:17.404Z,2.53
2019-05-23T14:18:47.979Z,2.80
2019-05-23T14:21:17.978Z,2.30
2019-05-23T14:23:48.009Z,2.60
2019-05-23T14:26:19.364Z,2.20
2019-05-23T14:28:50.032Z,1.80
2019-05-23T14:31:22.236Z,1.83
2019-05-23T14:34:13.023Z,2.33
2019-05-23T14:37:19.599Z,2.23
2019-05-23T14:39:58.436Z,2.30
2019-05-23T14:43:05.081Z,1.70
2019-05-23T14:46:14.116Z,2.03
2019-05-23T14:49:04.098Z,2.20
2019-05-23T14:52:01.119Z,2.30
2019-05-23T14:54:43.240Z,2.50
2019-05-23T14:57:13.603Z,2.00
2019-05-23T14:59:43.973Z,2.30
2019-05-23T15:02:17.233Z,2.17
2019-05-23T15:04:47.275Z,1.93
2019-05-23T15:07:17.714Z,2.30
2019-05-23T15:09:48.140Z,2.60
2019-05-23T15:12:18.344Z,2.00
2019-05-23T15:14:48.425Z,1.83
2019-05-23T15:17:19.764Z,1.70
2019-05-23T15:19:52.272Z,2.20
2019-05-23T15:22:25.264Z,2.53
2019-05-23T15:24:57.695Z,2.20
2019-05-23T15:27:28.773Z,2.40
2019-05-23T15:29:59.351Z,2.40
2019-05-23T15:32:29.703Z,2.77
2019-05-23T15:35:02.441Z,2.30
2019-05-23T15:37:34.802Z,2.50
2019-05-23T15:40:06.189Z,2.00
2019-05-23T15:42:42.417Z,2.13
2019-05-23T15:45:14.866Z,1.87
2019-05-23T15:47:46.279Z,2.50
2019-05-23T15:50:21.615Z,2.10
2019-05-23T15:52:57.547Z,2.03
2019-05-23T15:55:34.953Z,2.20
2019-05-23T15:58:09.724Z,1.80
2019-05-23T16:01:05.388Z,1.90
2019-05-23T16:03:45.104Z,1.40
2019-05-23T16:06:17.886Z,2.00
2019-05-23T16:08:48.698Z,2.10
2019-05-23T16:11:18.654Z,2.40
2019-05-23T16:13:50.443Z,1.73
2019-05-23T16:16:20.718Z,1.80
2019-05-23T16:18:50.694Z,1.57
2019-05-23T16:21:22.596Z,1.70
2019-05-23T16:23:54.213Z,1.80
2019-05-23T16:26:25.754Z,1.83
2019-05-23T16:28:55.519Z,1.80
2019-05-23T16:31:25.679Z,1.67
2019-05-23T16:33:55.667Z,1.80
2019-05-23T16:36:26.170Z,2.17
2019-05-23T16:38:56.800Z,1.70
2019-05-23T16:41:26.670Z,1.70
2019-05-23T16:43:59.283Z,1.53
2019-05-23T16:46:32.629Z,1.20
2019-05-23T16:49:02.970Z,1.50
2019-05-23T16:51:33.681Z,1.50
2019-05-23T16:54:04.278Z,1.10
2019-05-23T16:56:49.983Z,1.07
2019-05-23T16:59:38.960Z,1.50
2019-05-23T17:02:27.896Z,1.40
2019-05-23T17:05:10.510Z,1.60
2019-05-23T17:07:53.982Z,1.30
2019-05-23T17:10:55.063Z,1.70
2019-05-23T17:13:32.066Z,1.20
2019-05-23T17:16:18.945Z,1.53
2019-05-23T17:18:57.060Z,1.23
2019-05-23T17:21:38.835Z,1.60
2019-05-23T17:24:14.889Z,1.80
2019-05-23T17:26:53.653Z,1.40
2019-05-23T17:29:30.041Z,1.60
2019-05-23T17:32:01.462Z,1.27
2019-05-23T17:34:31.721Z,1.30
2019-05-23T17:37:02.109Z,1.10
2019-05-23T17:39:45.617Z,1.10
2019-05-23T17:42:16.198Z,1.07
2019-05-23T17:44:46.304Z,1.50
2019-05-23T17:47:17.513Z,1.27
2019-05-23T17:49:47.635Z,1.20
2019-05-23T17:52:19.593Z,0.90
2019-05-23T17:54:52.070Z,1.27
2019-05-23T17:57:22.289Z,1.33
2019-05-23T17:59:52.337Z,1.10
2019-05-23T18:02:22.435Z,1.30
2019-05-23T18:04:52.887Z,1.03
2019-05-23T18:07:25.378Z,1.10
2019-05-23T18:09:55.402Z,1.40
2019-05-23T18:12:25.735Z,1.73
2019-05-23T18:14:56.243Z,1.83
2019-05-23T18:17:29.403Z,1.80
2019-05-23T18:19:59.478Z,1.63
2019-05-23T18:22:30.209Z,1.60
2019-05-23T18:25:00.230Z,1.30
2019-05-23T18:27:31.929Z,1.30
2019-05-23T18:30:03.879Z,1.00
2019-05-23T18:32:34.298Z,1.03
2019-05-23T18:35:04.916Z,1.30
2019-05-23T18:37:34.959Z,1.30
2019-05-23T18:40:05.325Z,0.90
2019-05-23T18:42:35.523Z,1.30
2019-05-23T18:45:07.298Z,1.20
2019-05-23T18:47:40.913Z,1.27
2019-05-23T18:50:14.125Z,1.10
2019-05-23T18:52:44.406Z,1.60
2019-05-23T18:55:14.970Z,1.43
2019-05-23T18:57:45.738Z,1.53
2019-05-23T19:00:17.216Z,1.63
2019-05-23T19:02:48.164Z,1.50
2019-05-23T19:05:18.227Z,1.40
2019-05-23T19:07:49.518Z,1.27
2019-05-23T19:10:20.090Z,2.80
2019-05-23T19:12:50.542Z,0.97
2019-05-23T19:15:22.671Z,1.30
2019-05-23T19:17:52.853Z,1.10
2019-05-23T19:20:23.156Z,1.00
2019-05-23T19:22:53.734Z,1.40
2019-05-23T19:25:23.894Z,1.20
2019-05-23T19:27:53.823Z,1.80
2019-05-23T19:30:25.557Z,1.23
2019-05-23T19:32:56.683Z,1.67
2019-05-23T19:35:26.966Z,1.97
2019-05-23T19:37:56.918Z,1.40
2019-05-23T19:40:26.887Z,2.03
2019-05-23T19:42:56.880Z,1.70
2019-05-23T19:45:27.227Z,1.60
2019-05-23T19:47:57.225Z,1.53
2019-05-23T19:50:28.366Z,1.47
2019-05-23T19:52:59.056Z,1.87
2019-05-23T19:55:29.969Z,2.20
2019-05-23T19:58:00.808Z,1.90
2019-05-23T20:00:32.541Z,1.43
2019-05-23T20:03:04.305Z,2.17
2019-05-23T20:05:37.106Z,2.20
2019-05-23T20:08:07.260Z,2.60
2019-05-23T20:10:39.438Z,2.67
2019-05-23T20:13:09.642Z,2.20
2019-05-23T20:15:45.288Z,2.13
2019-05-23T20:18:14.257Z,2.40
2019-05-23T20:20:44.204Z,2.00
2019-05-23T20:23:16.144Z,2.03
2019-05-23T20:25:46.984Z,2.30
2019-05-23T20:28:17.200Z,1.93
2019-05-23T20:30:59.249Z,2.27
2019-05-23T20:33:29.276Z,2.00
2019-05-23T20:36:03.054Z,2.00
2019-05-23T20:38:33.619Z,2.00
2019-05-23T20:41:12.072Z,2.10
2019-05-23T20:43:42.324Z,2.07
2019-05-23T20:46:13.604Z,2.00
2019-05-23T20:48:48.116Z,1.93
2019-05-23T20:51:18.388Z,2.10
2019-05-23T20:53:52.337Z,2.43
2019-05-23T20:56:22.339Z,1.73
2019-05-23T20:58:53.864Z,1.97
2019-05-23T21:01:27.129Z,2.13
2019-05-23T21:03:58.780Z,2.47
2019-05-23T21:06:29.768Z,2.33
2019-05-23T21:09:00.852Z,2.50
2019-05-23T21:11:36.257Z,2.80
2019-05-23T21:14:06.497Z,2.10
2019-05-23T21:16:36.435Z,2.30
2019-05-23T21:19:07.846Z,2.30
2019-05-23T21:21:38.527Z,2.27
2019-05-23T21:24:10.672Z,2.67
2019-05-23T21:26:40.561Z,2.60
2019-05-23T21:29:10.633Z,2.33
2019-05-23T21:31:40.597Z,2.60
2019-05-23T21:34:10.597Z,2.30
2019-05-23T21:36:43.171Z,3.53
2019-05-23T21:39:13.696Z,3.03
2019-05-23T21:41:45.642Z,2.33
2019-05-23T21:44:18.049Z,2.30
2019-05-23T21:46:48.772Z,2.37
2019-05-23T21:49:20.784Z,2.30
2019-05-23T21:51:54.063Z,2.30
2019-05-23T21:54:29.520Z,2.40
2019-05-23T21:56:59.554Z,2.30
2019-05-23T21:59:32.111Z,2.47
2019-05-23T22:02:26.042Z,2.40
2019-05-23T22:05:07.836Z,2.30
2019-05-23T22:07:40.148Z,2.30
2019-05-23T22:10:11.272Z,2.40
2019-05-23T22:13:04.541Z,2.30
2019-05-23T22:15:37.221Z,1.97
2019-05-23T22:18:09.881Z,2.60
2019-05-23T22:20:49.275Z,2.20
2019-05-23T22:23:22.406Z,2.50
2019-05-23T22:25:52.954Z,2.70
2019-05-23T22:28:24.937Z,3.10
2019-05-23T22:30:55.314Z,2.50
2019-05-23T22:33:30.350Z,2.30
2019-05-23T22:36:00.902Z,3.07
2019-05-23T22:38:32.985Z,3.67
2019-05-23T22:41:04.057Z,3.00
2019-05-23T22:43:33.826Z,2.90
2019-05-23T22:46:04.042Z,3.00
2019-05-23T22:48:33.862Z,3.20
2019-05-23T22:51:03.879Z,3.07
2019-05-23T22:53:34.062Z,3.83
2019-05-23T22:56:04.863Z,3.80
2019-05-23T22:58:34.921Z,3.50
2019-05-23T23:01:05.542Z,3.80
2019-05-23T23:03:35.937Z,4.10
2019-05-23T23:06:06.302Z,4.23
2019-05-23T23:08:37.152Z,4.07
2019-05-23T23:11:06.984Z,4.30
2019-05-23T23:13:39.456Z,4.20
2019-05-23T23:16:09.584Z,5.20
2019-05-23T23:18:39.680Z,3.90
2019-05-23T23:21:10.178Z,4.90
2019-05-23T23:23:40.229Z,4.43
2019-05-23T23:26:10.297Z,5.27
2019-05-23T23:28:40.301Z,5.40
2019-05-23T23:31:10.644Z,5.13
2019-05-23T23:33:40.729Z,6.00
2019-05-23T23:36:10.857Z,6.20
2019-05-23T23:38:40.813Z,6.03
2019-05-23T23:41:10.849Z,7.00
2019-05-23T23:43:57.879Z,8.07
2019-05-23T23:46:31.467Z,9.97
2019-05-23T23:49:19.213Z,8.27
2019-05-23T23:52:06.933Z,7.40
2019-05-23T23:54:54.841Z,7.20
2019-05-23T23:57:42.557Z,7.70
